createdAt,value
2017-10-30T00:02:27.355Z,99.90
2017-10-30T00:04:55.167Z,99.90
2017-10-30T00:07:23.683Z,99.90
2017-10-30T00:09:51.432Z,99.90
2017-10-30T00:12:19.342Z,99.90
2017-10-30T00:14:47.205Z,99.90
2017-10-30T00:17:14.951Z,99.90
2017-10-30T00:19:42.831Z,99.90
2017-10-30T00:22:10.576Z,99.90
2017-10-30T00:24:38.325Z,99.90
2017-10-30T00:27:06.132Z,99.90
2017-10-30T00:29:33.880Z,99.90
2017-10-30T00:32:01.639Z,99.90
2017-10-30T00:34:29.555Z,99.90
2017-10-30T00:36:57.365Z,99.90
2017-10-30T00:39:25.230Z,99.90
2017-10-30T00:41:53.042Z,99.90
2017-10-30T00:44:20.856Z,99.90
2017-10-30T00:46:48.618Z,99.90
2017-10-30T00:49:16.426Z,99.90
2017-10-30T00:51:44.176Z,99.90
2017-10-30T00:54:12.688Z,99.90
2017-10-30T00:56:40.501Z,99.90
2017-10-30T00:59:08.264Z,99.90
2017-10-30T01:01:36.082Z,99.90
2017-10-30T01:04:03.971Z,99.90
2017-10-30T01:06:31.737Z,99.90
2017-10-30T01:08:59.490Z,99.90
2017-10-30T01:11:27.303Z,99.90
2017-10-30T01:13:55.078Z,99.90
2017-10-30T01:16:22.882Z,99.90
2017-10-30T01:18:50.691Z,99.90
2017-10-30T01:21:18.510Z,99.90
2017-10-30T01:23:46.373Z,99.90
2017-10-30T01:26:14.208Z,99.90
2017-10-30T01:28:41.956Z,99.90
2017-10-30T01:31:09.771Z,99.90
2017-10-30T01:33:37.725Z,99.90
2017-10-30T01:36:05.481Z,99.90
2017-10-30T01:38:33.247Z,99.90
2017-10-30T01:41:01.113Z,99.90
2017-10-30T01:43:28.860Z,99.90
2017-10-30T01:45:56.616Z,99.90
2017-10-30T01:48:25.322Z,99.90
2017-10-30T01:50:53.068Z,99.90
2017-10-30T01:53:20.818Z,99.90
2017-10-30T01:55:48.708Z,99.90
2017-10-30T01:58:16.570Z,99.90
2017-10-30T02:00:44.433Z,99.90
2017-10-30T02:03:12.240Z,99.90
2017-10-30T02:05:40.775Z,99.90
2017-10-30T02:08:08.641Z,99.90
2017-10-30T02:10:36.504Z,99.90
2017-10-30T02:13:04.366Z,99.90
2017-10-30T02:15:32.203Z,99.90
2017-10-30T02:18:00.096Z,99.90
2017-10-30T02:20:27.848Z,99.90
2017-10-30T02:22:55.600Z,99.90
2017-10-30T02:25:23.413Z,99.90
2017-10-30T02:27:51.935Z,99.90
2017-10-30T02:30:19.687Z,99.90
2017-10-30T02:32:47.587Z,99.90
2017-10-30T02:35:15.450Z,99.90
2017-10-30T02:37:43.200Z,99.90
2017-10-30T02:40:11.076Z,99.90
2017-10-30T02:42:38.828Z,99.90
2017-10-30T02:45:06.580Z,99.90
2017-10-30T02:47:34.463Z,99.90
2017-10-30T02:50:02.332Z,99.90
2017-10-30T02:52:30.163Z,99.90
2017-10-30T02:54:58.056Z,99.90
2017-10-30T02:57:25.919Z,99.90
2017-10-30T02:59:53.785Z,99.90
2017-10-30T03:02:21.748Z,99.90
2017-10-30T03:04:49.512Z,99.90
2017-10-30T03:07:17.260Z,99.90
2017-10-30T03:09:45.233Z,99.90
2017-10-30T03:12:12.996Z,99.90
2017-10-30T03:14:40.752Z,99.90
2017-10-30T03:17:08.565Z,99.90
2017-10-30T03:19:37.084Z,99.90
2017-10-30T03:22:04.966Z,99.90
2017-10-30T03:24:32.831Z,99.90
2017-10-30T03:27:00.584Z,99.90
2017-10-30T03:29:29.174Z,99.90
2017-10-30T03:31:56.987Z,99.90
2017-10-30T03:34:25.620Z,99.90
2017-10-30T03:36:53.482Z,99.90
2017-10-30T03:39:21.303Z,99.90
2017-10-30T03:41:49.113Z,99.90
2017-10-30T03:44:16.865Z,99.90
2017-10-30T03:46:44.734Z,99.90
2017-10-30T03:49:12.495Z,99.90
2017-10-30T03:51:40.360Z,99.90
2017-10-30T03:54:08.167Z,99.90
2017-10-30T03:56:35.989Z,99.90
2017-10-30T03:59:03.736Z,99.90
2017-10-30T04:01:31.549Z,99.90
2017-10-30T04:03:59.380Z,99.90
2017-10-30T04:06:27.236Z,99.90
2017-10-30T04:08:55.045Z,99.90
2017-10-30T04:11:22.795Z,99.90
2017-10-30T04:13:51.308Z,99.90
2017-10-30T04:16:19.204Z,99.90
2017-10-30T04:18:47.068Z,99.90
2017-10-30T04:21:14.815Z,99.90
2017-10-30T04:23:43.384Z,99.90
2017-10-30T04:26:11.172Z,99.90
2017-10-30T04:28:38.916Z,99.90
2017-10-30T04:31:06.733Z,99.90
2017-10-30T04:33:35.248Z,99.90
2017-10-30T04:36:03.687Z,99.90
2017-10-30T04:38:32.307Z,99.90
2017-10-30T04:41:00.055Z,99.90
2017-10-30T04:43:27.810Z,99.90
2017-10-30T04:45:55.620Z,99.90
2017-10-30T04:48:23.459Z,99.90
2017-10-30T04:50:51.209Z,99.90
2017-10-30T04:53:19.110Z,99.90
2017-10-30T04:55:46.864Z,99.90
2017-10-30T04:58:14.613Z,99.90
2017-10-30T05:00:43.315Z,99.90
2017-10-30T05:03:11.180Z,99.90
2017-10-30T05:05:39.043Z,99.90
2017-10-30T05:08:06.853Z,99.90
2017-10-30T05:10:34.688Z,99.90
2017-10-30T05:13:03.249Z,99.90
2017-10-30T05:15:31.114Z,99.90
2017-10-30T05:17:58.961Z,99.90
2017-10-30T05:20:26.847Z,99.90
2017-10-30T05:22:54.685Z,99.90
2017-10-30T05:25:22.427Z,99.90
2017-10-30T05:27:50.230Z,99.90
2017-10-30T05:30:18.051Z,99.90
2017-10-30T05:32:45.856Z,99.90
2017-10-30T05:35:13.723Z,99.90
2017-10-30T05:37:41.556Z,99.90
2017-10-30T05:40:09.345Z,99.90
2017-10-30T05:42:37.106Z,99.90
2017-10-30T05:45:04.919Z,99.90
2017-10-30T05:47:32.677Z,99.90
2017-10-30T05:50:00.424Z,99.90
2017-10-30T05:52:28.994Z,99.90
2017-10-30T05:54:56.836Z,99.90
2017-10-30T05:57:24.584Z,99.90
2017-10-30T05:59:53.207Z,99.90
2017-10-30T06:02:21.760Z,99.90
2017-10-30T06:04:49.623Z,99.90
2017-10-30T06:07:17.510Z,99.90
2017-10-30T06:09:45.259Z,99.90
2017-10-30T06:12:13.820Z,99.90
2017-10-30T06:14:41.631Z,99.90
2017-10-30T06:17:10.173Z,99.90
2017-10-30T06:19:38.037Z,99.90
2017-10-30T06:22:05.844Z,99.90
2017-10-30T06:24:34.480Z,99.90
2017-10-30T06:27:02.229Z,99.90
2017-10-30T06:29:30.080Z,99.90
2017-10-30T06:31:57.832Z,99.90
2017-10-30T06:34:25.635Z,99.90
2017-10-30T06:36:53.443Z,99.90
2017-10-30T06:39:21.188Z,99.90
2017-10-30T06:41:49.699Z,99.90
2017-10-30T06:44:17.503Z,99.90
2017-10-30T06:46:45.252Z,99.90
2017-10-30T06:49:13.008Z,99.90
2017-10-30T06:51:40.823Z,99.90
2017-10-30T06:54:09.336Z,99.90
2017-10-30T06:56:37.084Z,99.90
2017-10-30T06:59:04.908Z,99.90
2017-10-30T07:01:32.695Z,99.90
2017-10-30T07:04:00.509Z,99.10
2017-10-30T07:06:29.193Z,99.90
2017-10-30T07:21:44.729Z,99.90
2017-10-30T07:24:13.280Z,99.90
2017-10-30T07:26:41.145Z,99.90
2017-10-30T07:29:08.951Z,99.90
2017-10-30T07:31:37.590Z,99.90
2017-10-30T07:34:05.353Z,99.90
2017-10-30T07:36:33.152Z,99.90
2017-10-30T07:39:01.665Z,99.90
2017-10-30T07:41:29.456Z,99.90
2017-10-30T07:43:57.258Z,99.90
2017-10-30T07:46:25.771Z,99.90
2017-10-30T07:48:53.519Z,99.90
2017-10-30T07:51:21.423Z,99.90
2017-10-30T07:53:49.172Z,99.90
2017-10-30T07:56:16.947Z,99.90
2017-10-30T07:58:44.760Z,99.90
2017-10-30T08:01:12.515Z,99.90
2017-10-30T08:03:41.076Z,99.90
2017-10-30T08:06:08.914Z,99.90
2017-10-30T08:08:37.426Z,93.70
2017-10-30T08:11:05.937Z,90.80
2017-10-30T08:13:33.750Z,90.80
2017-10-30T08:16:01.599Z,77.30
2017-10-30T08:18:29.370Z,54.90
2017-10-30T08:20:57.178Z,64.00
2017-10-30T08:23:24.923Z,75.70
2017-10-30T08:25:53.465Z,96.10
2017-10-30T08:28:21.279Z,95.80
2017-10-30T08:30:49.030Z,94.70
2017-10-30T08:33:17.538Z,97.60
2017-10-30T08:35:46.252Z,98.80
2017-10-30T08:38:14.222Z,98.70
2017-10-30T08:40:41.971Z,98.90
2017-10-30T08:43:09.803Z,98.30
2017-10-30T08:45:37.548Z,96.00
2017-10-30T08:48:06.187Z,93.00
2017-10-30T08:50:34.051Z,93.00
2017-10-30T08:53:01.915Z,92.90
2017-10-30T08:55:29.669Z,93.50
2017-10-30T08:57:57.484Z,93.30
2017-10-30T09:00:26.007Z,90.50
2017-10-30T09:02:53.759Z,90.50
2017-10-30T09:05:21.578Z,91.70
2017-10-30T09:07:49.346Z,90.90
2017-10-30T09:10:17.897Z,90.20
2017-10-30T09:12:45.716Z,90.30
2017-10-30T09:15:13.515Z,91.90
2017-10-30T09:17:41.264Z,91.30
2017-10-30T09:20:09.849Z,90.30
2017-10-30T09:22:37.717Z,90.30
2017-10-30T09:25:05.580Z,85.40
2017-10-30T09:27:33.400Z,84.70
2017-10-30T09:30:01.155Z,86.20
2017-10-30T09:32:28.967Z,77.90
2017-10-30T09:34:56.785Z,69.60
2017-10-30T09:37:24.534Z,64.30
2017-10-30T09:39:53.176Z,61.80
2017-10-30T09:42:21.037Z,61.50
2017-10-30T09:44:48.903Z,60.60
2017-10-30T09:47:16.739Z,60.90
2017-10-30T09:49:44.603Z,60.10
2017-10-30T09:52:12.355Z,62.10
2017-10-30T09:54:40.128Z,60.70
2017-10-30T09:57:07.930Z,59.20
2017-10-30T09:59:35.670Z,59.30
2017-10-30T10:02:03.419Z,59.50
2017-10-30T10:04:31.234Z,59.80
2017-10-30T10:06:59.885Z,58.00
2017-10-30T10:09:27.747Z,58.00
2017-10-30T10:11:55.609Z,55.40
2017-10-30T10:14:23.411Z,55.70
2017-10-30T10:16:51.944Z,52.60
2017-10-30T10:19:19.744Z,52.60
2017-10-30T10:21:48.262Z,54.50
2017-10-30T10:24:16.006Z,54.10
2017-10-30T10:26:43.808Z,53.70
2017-10-30T10:29:11.566Z,54.00
2017-10-30T10:31:39.344Z,53.30
2017-10-30T10:34:07.206Z,53.90
2017-10-30T10:36:35.715Z,56.40
2017-10-30T10:39:04.269Z,52.10
2017-10-30T10:41:32.079Z,51.60
2017-10-30T10:43:59.819Z,52.60
2017-10-30T10:46:28.469Z,50.80
2017-10-30T10:48:56.345Z,50.80
2017-10-30T10:51:24.093Z,50.60
2017-10-30T10:53:51.856Z,47.70
2017-10-30T10:56:19.725Z,48.80
2017-10-30T10:58:47.688Z,49.70
2017-10-30T11:01:15.436Z,50.80
2017-10-30T11:03:44.015Z,50.80
2017-10-30T11:06:11.895Z,50.70
2017-10-30T11:08:39.758Z,52.60
2017-10-30T11:11:07.622Z,51.10
2017-10-30T11:13:35.487Z,48.70
2017-10-30T11:16:03.245Z,46.20
2017-10-30T11:18:31.111Z,45.70
2017-10-30T11:20:58.872Z,44.90
2017-10-30T11:23:26.616Z,45.80
2017-10-30T11:25:54.454Z,46.10
2017-10-30T11:28:22.260Z,47.00
2017-10-30T11:30:50.018Z,45.70
2017-10-30T11:33:17.886Z,46.00
2017-10-30T11:35:45.648Z,44.90
2017-10-30T11:38:13.399Z,43.80
2017-10-30T11:40:41.972Z,42.10
2017-10-30T11:43:09.724Z,42.00
2017-10-30T11:45:37.481Z,43.30
2017-10-30T11:48:05.284Z,42.70
2017-10-30T11:50:33.026Z,43.50
2017-10-30T11:53:00.771Z,43.00
2017-10-30T11:55:28.576Z,43.00
2017-10-30T11:57:56.348Z,42.60
2017-10-30T12:00:24.850Z,39.60
2017-10-30T12:02:52.652Z,39.50
2017-10-30T12:05:20.398Z,39.60
2017-10-30T12:07:48.181Z,41.40
2017-10-30T12:10:15.992Z,48.30
2017-10-30T12:12:44.530Z,48.00
2017-10-30T12:15:12.297Z,47.70
2017-10-30T12:17:40.100Z,49.90
2017-10-30T12:20:07.916Z,48.50
2017-10-30T12:22:35.784Z,49.90
2017-10-30T12:25:03.642Z,47.10
2017-10-30T12:27:31.395Z,47.80
2017-10-30T12:29:59.172Z,44.90
2017-10-30T12:32:27.030Z,47.50
2017-10-30T12:34:54.895Z,46.10
2017-10-30T12:37:22.731Z,47.90
2017-10-30T12:39:50.543Z,51.40
2017-10-30T12:42:18.384Z,54.30
2017-10-30T12:44:46.136Z,56.20
2017-10-30T12:47:13.941Z,53.50
2017-10-30T12:49:42.590Z,48.50
2017-10-30T12:52:10.456Z,48.50
2017-10-30T12:54:38.319Z,47.50
2017-10-30T12:57:06.063Z,46.00
2017-10-30T12:59:33.844Z,46.30
2017-10-30T13:02:01.672Z,45.30
2017-10-30T13:04:29.473Z,46.20
2017-10-30T13:06:57.219Z,47.30
2017-10-30T13:09:25.093Z,46.40
2017-10-30T13:11:52.957Z,45.40
2017-10-30T13:14:20.830Z,45.20
2017-10-30T13:16:48.658Z,44.80
2017-10-30T13:19:16.423Z,45.20
2017-10-30T13:21:44.208Z,44.20
2017-10-30T13:24:12.020Z,43.70
2017-10-30T13:26:39.763Z,43.20
2017-10-30T13:29:08.268Z,42.30
2017-10-30T13:31:36.176Z,42.20
2017-10-30T13:34:03.915Z,42.40
2017-10-30T13:36:31.660Z,40.90
2017-10-30T13:38:59.468Z,38.70
2017-10-30T13:41:27.328Z,38.30
2017-10-30T13:43:55.186Z,35.40
2017-10-30T13:46:22.988Z,38.50
2017-10-30T13:48:51.502Z,37.60
2017-10-30T13:51:19.247Z,37.30
2017-10-30T13:53:47.156Z,37.70
2017-10-30T13:56:14.906Z,35.70
2017-10-30T13:58:42.752Z,38.30
2017-10-30T14:01:10.556Z,37.10
2017-10-30T14:03:38.410Z,36.20
2017-10-30T14:06:06.270Z,38.80
2017-10-30T14:08:34.071Z,37.60
2017-10-30T14:11:02.583Z,36.20
2017-10-30T14:13:30.322Z,35.90
2017-10-30T14:15:58.239Z,38.10
2017-10-30T14:18:25.990Z,38.80
2017-10-30T14:20:53.865Z,37.90
2017-10-30T14:23:21.680Z,37.40
2017-10-30T14:25:49.490Z,37.40
2017-10-30T14:28:17.247Z,37.10
2017-10-30T14:30:45.116Z,37.80
2017-10-30T14:33:12.883Z,36.80
2017-10-30T14:35:40.652Z,37.80
2017-10-30T14:38:08.487Z,38.50
2017-10-30T14:40:36.366Z,38.60
2017-10-30T14:43:04.119Z,38.60
2017-10-30T14:45:31.992Z,38.80
2017-10-30T14:47:59.856Z,38.50
2017-10-30T14:50:27.719Z,39.00
2017-10-30T14:52:55.582Z,38.80
2017-10-30T14:55:23.448Z,39.50
2017-10-30T14:57:51.196Z,38.30
2017-10-30T15:00:21.020Z,41.20
2017-10-30T15:02:48.780Z,40.00
2017-10-30T15:05:16.548Z,40.40
2017-10-30T15:07:44.655Z,40.90
2017-10-30T15:10:13.192Z,41.40
2017-10-30T15:12:40.940Z,41.40
2017-10-30T15:15:08.787Z,42.10
2017-10-30T15:17:36.580Z,42.50
2017-10-30T15:20:04.330Z,42.20
2017-10-30T15:22:32.135Z,43.40
2017-10-30T15:25:00.785Z,43.20
2017-10-30T15:27:28.545Z,43.20
2017-10-30T15:29:56.412Z,44.70
2017-10-30T15:32:24.284Z,43.80
2017-10-30T15:34:52.056Z,44.20
2017-10-30T15:37:19.899Z,44.70
2017-10-30T15:39:47.699Z,45.20
2017-10-30T15:42:16.227Z,45.40
2017-10-30T15:44:44.142Z,45.40
2017-10-30T15:47:12.789Z,99.90
2017-10-30T15:49:40.632Z,99.90
2017-10-30T15:52:08.455Z,56.90
2017-10-30T15:54:36.974Z,48.50
2017-10-30T15:57:04.723Z,48.40
2017-10-30T15:59:32.528Z,48.70
2017-10-30T16:02:00.277Z,49.00
2017-10-30T16:04:28.024Z,48.10
2017-10-30T16:06:55.907Z,48.40
2017-10-30T16:09:23.774Z,48.30
2017-10-30T16:11:51.638Z,46.70
2017-10-30T16:14:19.457Z,47.50
2017-10-30T16:16:47.261Z,46.90
2017-10-30T16:19:15.005Z,45.60
2017-10-30T16:21:43.584Z,44.20
2017-10-30T16:24:11.339Z,44.20
2017-10-30T16:26:39.079Z,44.60
2017-10-30T16:29:06.990Z,44.90
2017-10-30T16:31:34.736Z,44.40
2017-10-30T16:34:02.497Z,44.80
2017-10-30T16:36:30.308Z,45.30
2017-10-30T16:38:58.832Z,44.90
2017-10-30T16:41:26.581Z,44.80
2017-10-30T16:43:54.390Z,44.70
2017-10-30T16:46:22.147Z,44.80
2017-10-30T16:48:49.887Z,45.70
2017-10-30T16:51:17.766Z,46.00
2017-10-30T16:53:45.514Z,46.00
2017-10-30T16:56:13.278Z,47.50
2017-10-30T16:58:41.876Z,47.60
2017-10-30T17:01:09.734Z,47.60
2017-10-30T17:03:37.702Z,48.30
2017-10-30T17:06:05.567Z,49.30
2017-10-30T17:08:33.315Z,49.30
2017-10-30T17:11:01.089Z,49.60
2017-10-30T17:13:28.899Z,50.50
2017-10-30T17:15:56.712Z,51.40
2017-10-30T17:18:24.684Z,52.10
2017-10-30T17:20:52.520Z,52.20
2017-10-30T17:23:20.307Z,52.90
2017-10-30T17:25:48.056Z,53.50
2017-10-30T17:28:15.899Z,55.30
2017-10-30T17:30:44.472Z,56.80
2017-10-30T17:33:12.686Z,56.90
2017-10-30T17:35:40.546Z,58.50
2017-10-30T17:38:08.412Z,59.00
2017-10-30T17:40:36.274Z,59.90
2017-10-30T17:43:04.148Z,59.50
2017-10-30T17:45:31.907Z,59.60
2017-10-30T17:47:59.674Z,61.10
2017-10-30T17:50:27.495Z,59.80
2017-10-30T17:52:55.248Z,61.60
2017-10-30T17:55:23.048Z,61.60
2017-10-30T17:57:51.424Z,60.90
2017-10-30T18:00:19.288Z,60.60
2017-10-30T18:02:47.153Z,59.80
2017-10-30T18:05:15.019Z,59.80
2017-10-30T18:07:42.884Z,59.50
2017-10-30T18:10:10.784Z,59.00
2017-10-30T18:12:39.429Z,58.50
2017-10-30T18:15:07.179Z,58.50
2017-10-30T18:17:34.951Z,60.00
2017-10-30T18:20:02.920Z,58.00
2017-10-30T18:22:31.703Z,57.30
2017-10-30T18:24:59.669Z,57.30
2017-10-30T18:27:27.636Z,57.10
2017-10-30T18:29:55.912Z,56.60
2017-10-30T18:32:23.981Z,56.60
2017-10-30T18:34:51.945Z,56.40
2017-10-30T18:37:19.814Z,57.70
2017-10-30T18:39:47.672Z,56.30
2017-10-30T18:42:16.539Z,56.90
2017-10-30T18:44:44.432Z,58.10
2017-10-30T18:47:12.184Z,59.40
2017-10-30T18:49:40.005Z,60.00
2017-10-30T18:52:07.921Z,61.40
2017-10-30T18:54:35.778Z,62.70
2017-10-30T18:57:04.153Z,64.30
2017-10-30T18:59:32.427Z,66.60
2017-10-30T19:02:00.296Z,67.50
2017-10-30T19:04:29.690Z,69.40
2017-10-30T19:06:57.555Z,72.50
2017-10-30T19:09:26.072Z,80.80
2017-10-30T19:11:53.907Z,80.80
2017-10-30T19:14:21.668Z,84.70
2017-10-30T19:16:49.524Z,87.00
2017-10-30T19:19:17.388Z,88.40
2017-10-30T19:21:45.251Z,90.50
2017-10-30T19:24:13.814Z,91.90
2017-10-30T19:26:41.628Z,91.90
2017-10-30T19:29:10.148Z,94.10
2017-10-30T19:31:37.908Z,94.10
2017-10-30T19:34:05.909Z,95.70
2017-10-30T19:36:33.869Z,96.60
2017-10-30T19:39:01.613Z,95.90
2017-10-30T19:41:29.495Z,95.20
2017-10-30T19:43:57.358Z,95.90
2017-10-30T19:46:25.350Z,95.70
2017-10-30T19:48:54.009Z,95.50
2017-10-30T19:51:21.875Z,95.20
2017-10-30T19:53:49.736Z,95.20
2017-10-30T19:56:17.560Z,95.60
2017-10-30T19:58:46.284Z,95.20
2017-10-30T20:01:14.148Z,95.30
2017-10-30T20:03:41.965Z,95.10
2017-10-30T20:06:15.613Z,95.40
2017-10-30T20:08:49.209Z,96.90
2017-10-30T20:11:22.607Z,99.40
2017-10-30T20:13:50.438Z,99.90
2017-10-30T20:16:18.328Z,99.90
2017-10-30T20:18:46.194Z,99.90
2017-10-30T20:21:14.065Z,99.90
2017-10-30T20:23:41.893Z,99.90
2017-10-30T20:26:09.650Z,99.90
2017-10-30T20:28:37.547Z,99.90
2017-10-30T20:31:06.661Z,99.90
2017-10-30T20:33:35.222Z,99.90
2017-10-30T20:36:03.084Z,99.90
2017-10-30T20:38:31.620Z,99.90
2017-10-30T20:40:59.375Z,99.90
2017-10-30T20:43:27.393Z,99.90
2017-10-30T20:45:55.263Z,99.90
2017-10-30T20:48:23.018Z,99.90
2017-10-30T20:50:50.829Z,99.90
2017-10-30T20:53:18.573Z,99.90
2017-10-30T20:55:47.330Z,99.90
2017-10-30T20:58:16.359Z,99.90
2017-10-30T21:00:45.515Z,99.90
2017-10-30T21:03:17.064Z,99.90
2017-10-30T21:05:45.749Z,99.90
2017-10-30T21:08:13.592Z,99.90
2017-10-30T21:10:41.371Z,99.90
2017-10-30T21:13:10.158Z,99.90
2017-10-30T21:15:38.021Z,99.90
2017-10-30T21:18:06.603Z,99.90
2017-10-30T21:20:34.415Z,99.90
2017-10-30T21:23:02.166Z,99.90
2017-10-30T21:25:30.688Z,99.90
2017-10-30T21:27:58.503Z,99.90
2017-10-30T21:30:27.357Z,99.90
2017-10-30T21:32:55.436Z,99.90
2017-10-30T21:35:23.255Z,99.90
2017-10-30T21:37:52.078Z,99.90
2017-10-30T21:40:20.554Z,99.90
2017-10-30T21:42:48.396Z,99.90
2017-10-30T21:45:16.692Z,99.90
2017-10-30T21:47:44.567Z,99.90
2017-10-30T21:50:12.522Z,99.90
2017-10-30T21:52:41.622Z,99.90
2017-10-30T21:55:09.584Z,99.90
2017-10-30T21:57:37.552Z,99.90
2017-10-30T22:00:05.309Z,99.90
2017-10-30T22:02:33.266Z,99.90
2017-10-30T22:05:01.348Z,99.90
2017-10-30T22:07:29.105Z,99.90
2017-10-30T22:09:56.968Z,99.90
2017-10-30T22:12:24.938Z,99.90
2017-10-30T22:14:52.799Z,99.90
2017-10-30T22:17:20.552Z,99.90
2017-10-30T22:19:48.375Z,99.90
2017-10-30T22:22:16.289Z,99.90
2017-10-30T22:24:44.153Z,99.90
2017-10-30T22:27:12.016Z,99.90
2017-10-30T22:29:40.189Z,99.90
2017-10-30T22:32:08.052Z,99.90
2017-10-30T22:34:35.871Z,99.90
2017-10-30T22:37:03.622Z,99.90
2017-10-30T22:39:31.439Z,99.90
2017-10-30T22:41:59.302Z,99.90
2017-10-30T22:44:27.064Z,99.90
2017-10-30T22:46:54.808Z,99.90
2017-10-30T22:49:22.690Z,99.90
2017-10-30T22:51:50.432Z,99.90
2017-10-30T22:54:18.213Z,99.90
2017-10-30T22:56:46.027Z,99.90
2017-10-30T22:59:13.776Z,99.90
2017-10-30T23:01:42.331Z,99.90
2017-10-30T23:04:10.139Z,99.90
2017-10-30T23:06:37.945Z,99.90
2017-10-30T23:09:05.807Z,99.90
2017-10-30T23:11:33.880Z,99.90
2017-10-30T23:14:01.740Z,99.90
2017-10-30T23:16:29.499Z,99.90
2017-10-30T23:18:57.373Z,99.90
2017-10-30T23:21:25.122Z,99.90
2017-10-30T23:23:53.632Z,99.90
2017-10-30T23:26:22.199Z,99.90
2017-10-30T23:28:50.049Z,99.90
2017-10-30T23:31:17.919Z,99.90
2017-10-30T23:33:45.729Z,99.90
2017-10-30T23:36:13.478Z,99.90
2017-10-30T23:38:42.120Z,99.90
2017-10-30T23:41:09.931Z,99.90
2017-10-30T23:43:37.679Z,99.90
2017-10-30T23:46:06.225Z,99.90
2017-10-30T23:48:34.086Z,99.90
2017-10-30T23:51:01.951Z,99.90
2017-10-30T23:53:29.815Z,99.90
2017-10-30T23:55:57.680Z,99.90
2017-10-30T23:58:25.545Z,99.90
